Impacts TAF Board
For situational awareness. Not to be used for flight planning purposes.
IDs:

KDCA - Washington/National, VA, US

Issued at 1131 UTC 05 Apr 2020
Updated at 1409 UTC 05 Apr 2020
Potential Impact None Slight Moderate High
Time1352Z 05/15Z 05/16Z 05/17Z 05/18Z 05/19Z 05/20Z 05/21Z 05/22Z 05/23Z 06/00Z 06/01Z 06/02Z 06/03Z>>
Type OBS PRVL PRVL PRVL PRVL PRVL PRVL PRVL PRVL PRVL PRVL PRVL PRVL PRVL
VIS 10 >6 >6 >6 >6 >6 >6 >6 >6 >6 >6 >6 >6 >6
CIG 100 -- -- -- -- -- -- -- -- -- -- -- 70 70
Cover BKN SCT SCT SCT SCT SCT SCT SCT SCT SCT SCT SCT BKN BKN
FltCat VFR VFR VFR VFR VFR VFR VFR VFR VFR VFR VFR VFR VFR VFR
WX -- -- -- -- -- -- -- -- -- -- -- -- -- --
WDir 170 200 200 210 210 210 210 210 210 210 210 210 210 210
WSpd 8 6 6 5 5 5 5 5 5 5 5 5 4 4
WGst -- -- -- -- -- -- -- -- -- -- -- -- -- --
Raw TAF
KDCA 051131Z 0512/0618 20006KT P6SM FEW070 SCT200
  FM051700 21005KT P6SM SCT100
  FM060200 21004KT P6SM BKN070
  FM060500 26004KT P6SM BKN060
  FM061100 36005KT P6SM SCT045


Raw METAR
KDCA 051352Z 17008KT 10SM FEW065 BKN100 BKN250 12/09 A3011 RMK AO2 SLP196 T01170089
KDCA 051252Z 18007KT 10SM FEW065 BKN100 BKN250 09/08 A3011 RMK AO2 SLP195 T00940083
KDCA 051202Z 19007KT 10SM FEW006 SCT065 SCT250 09/08 A3010 RMK AO2 T00940083
KDCA 051152Z 18007KT 10SM FEW065 SCT250 09/08 A3010 RMK AO2 SLP192 T00940083 10100 20083 53009

METAR Board
Radar Display
Forecast Discussion
For situational awareness. Not to be used for flight planning purposes.